Gainesville, Kentucky
Current Conditions -  °F | °C
As of 10:53 AM on Sunday 23 Nov 2014 (Local Time) from KBWG Reporting Station
Overcast Overcast  
Wind Chill: 61°   Ceiling: 4700
Heat Index: 61°   Visibility: 10mi
Dew Point: 52°   Wind: 12mph
Humidity: 72%   Direction: 150°SSE
Pressure: 29.77"   Gusts: NA
Location:  36.7794°N, 86.196°W
Report Text: KBWG 231653Z AUTO 15010KT 10SM FEW022 BKN047 OVC055 16/11 A2977 RMK AO2 RAB09E44 SLP078 P0000 T01610111
Loading
Personal Weather Stations






























Interactive Weather Map New forecast layout! Learn more

10-Day Weather Forecast

Advertisements
Track Severe Weather on mobile